createdAt,value
2018-12-13T00:00:22.814Z,2.50
2018-12-13T00:02:52.069Z,2.30
2018-12-13T00:05:21.321Z,2.20
2018-12-13T00:07:50.599Z,2.40
2018-12-13T00:10:19.884Z,2.40
2018-12-13T00:12:49.148Z,2.40
2018-12-13T00:15:22.631Z,2.30
2018-12-13T00:17:51.882Z,2.20
2018-12-13T00:20:21.129Z,2.20
2018-12-13T00:22:50.358Z,2.20
2018-12-13T00:25:19.584Z,2.30
2018-12-13T00:27:48.824Z,2.40
2018-12-13T00:30:18.076Z,2.40
2018-12-13T00:32:47.342Z,2.50
2018-12-13T00:35:16.615Z,2.50
2018-12-13T00:37:45.872Z,2.40
2018-12-13T00:40:15.110Z,2.30
2018-12-13T00:42:44.382Z,2.40
2018-12-13T00:45:13.645Z,2.40
2018-12-13T00:47:42.874Z,2.40
2018-12-13T00:50:12.141Z,2.30
2018-12-13T00:52:41.373Z,2.20
2018-12-13T00:55:10.714Z,2.20
2018-12-13T00:57:39.993Z,2.50
2018-12-13T01:00:09.492Z,2.30
2018-12-13T01:02:38.746Z,2.20
2018-12-13T01:05:07.970Z,2.10
2018-12-13T01:07:37.237Z,2.20
2018-12-13T01:10:06.742Z,2.20
2018-12-13T01:12:35.969Z,2.20
2018-12-13T01:15:05.621Z,2.20
2018-12-13T01:17:35.799Z,2.20
2018-12-13T01:20:05.537Z,2.20
2018-12-13T01:22:34.831Z,2.20
2018-12-13T01:25:04.452Z,2.10
2018-12-13T01:27:33.687Z,2.00
2018-12-13T01:30:02.965Z,2.00
2018-12-13T01:32:32.214Z,2.00
2018-12-13T01:35:01.453Z,1.90
2018-12-13T01:37:30.793Z,1.90
2018-12-13T01:40:00.108Z,2.00
2018-12-13T01:42:29.371Z,2.10
2018-12-13T01:44:58.621Z,2.10
2018-12-13T01:47:27.920Z,2.00
2018-12-13T01:49:57.174Z,2.00
2018-12-13T01:52:26.424Z,1.90
2018-12-13T01:54:55.674Z,1.90
2018-12-13T01:57:24.926Z,1.90
2018-12-13T01:59:54.161Z,1.70
2018-12-13T02:02:23.448Z,1.50
2018-12-13T02:04:52.722Z,1.50
2018-12-13T02:07:21.914Z,1.70
2018-12-13T02:09:51.128Z,1.60
2018-12-13T02:12:21.011Z,1.50
2018-12-13T02:14:50.422Z,1.40
2018-12-13T02:17:19.674Z,1.60
2018-12-13T02:19:49.194Z,1.60
2018-12-13T02:22:18.448Z,1.40
2018-12-13T02:24:47.668Z,1.40
2018-12-13T02:27:16.910Z,1.50
2018-12-13T02:29:46.154Z,1.60
2018-12-13T02:32:15.422Z,1.80
2018-12-13T02:34:44.660Z,1.80
2018-12-13T02:37:13.951Z,1.70
2018-12-13T02:39:43.184Z,1.50
2018-12-13T02:42:13.429Z,1.70
2018-12-13T02:44:42.743Z,1.80
2018-12-13T02:47:11.970Z,1.70
2018-12-13T02:49:41.234Z,1.70
2018-12-13T02:52:10.527Z,1.60
2018-12-13T02:54:39.899Z,1.70
2018-12-13T02:57:09.124Z,1.80
2018-12-13T02:59:38.389Z,1.80
2018-12-13T03:02:07.614Z,1.70
2018-12-13T03:04:36.881Z,1.70
2018-12-13T03:07:13.347Z,1.70
2018-12-13T03:09:37.338Z,1.80
2018-12-13T03:12:06.574Z,1.80
2018-12-13T03:14:35.811Z,1.70
2018-12-13T03:17:05.160Z,1.70
2018-12-13T03:19:34.408Z,1.60
2018-12-13T03:22:03.732Z,1.60
2018-12-13T03:24:32.999Z,1.50
2018-12-13T03:27:02.229Z,1.60
2018-12-13T03:29:31.474Z,1.70
2018-12-13T03:32:00.725Z,1.60
2018-12-13T03:34:30.656Z,1.50
2018-12-13T03:36:59.895Z,1.60
2018-12-13T03:39:29.135Z,1.60
2018-12-13T03:41:58.337Z,1.60
2018-12-13T03:44:27.586Z,1.60
2018-12-13T03:46:56.816Z,1.50
2018-12-13T03:49:26.045Z,1.50
2018-12-13T03:51:55.293Z,1.40
2018-12-13T03:54:24.527Z,1.40
2018-12-13T03:56:53.789Z,1.40
2018-12-13T03:59:23.038Z,1.50
2018-12-13T04:01:52.305Z,1.40
2018-12-13T04:04:21.617Z,1.40
2018-12-13T04:06:50.834Z,1.60
2018-12-13T04:09:20.165Z,1.70
2018-12-13T04:11:49.414Z,1.80
2018-12-13T04:14:18.688Z,1.70
2018-12-13T04:16:47.949Z,1.70
2018-12-13T04:19:17.711Z,1.70
2018-12-13T04:21:46.933Z,1.70
2018-12-13T04:24:16.274Z,1.60
2018-12-13T04:26:45.558Z,1.70
2018-12-13T04:29:14.846Z,1.70
2018-12-13T04:31:44.124Z,1.60
2018-12-13T04:34:13.450Z,1.40
2018-12-13T04:36:42.695Z,1.40
2018-12-13T04:39:11.966Z,1.40
2018-12-13T04:41:41.234Z,1.50
2018-12-13T04:44:10.524Z,1.50
2018-12-13T04:46:39.756Z,1.50
2018-12-13T04:49:09.015Z,1.50
2018-12-13T04:51:38.223Z,1.50
2018-12-13T04:54:07.474Z,1.50
2018-12-13T04:56:36.718Z,1.40
2018-12-13T04:59:05.962Z,1.30
2018-12-13T05:01:35.218Z,1.40
2018-12-13T05:04:04.465Z,1.40
2018-12-13T05:06:33.708Z,1.30
2018-12-13T05:09:04.204Z,1.20
2018-12-13T05:11:33.563Z,1.30
2018-12-13T05:14:02.918Z,1.30
2018-12-13T05:16:32.177Z,1.30
2018-12-13T05:19:01.481Z,1.20
2018-12-13T05:21:30.724Z,1.20
2018-12-13T05:23:59.988Z,1.50
2018-12-13T05:26:29.261Z,1.60
2018-12-13T05:28:58.706Z,1.40
2018-12-13T05:31:27.960Z,1.30
2018-12-13T05:33:57.354Z,1.30
2018-12-13T05:36:26.606Z,1.40
2018-12-13T05:38:56.765Z,1.30
2018-12-13T05:41:26.018Z,1.30
2018-12-13T05:43:55.349Z,1.30
2018-12-13T05:46:24.598Z,1.30
2018-12-13T05:48:54.606Z,1.30
2018-12-13T05:51:24.305Z,1.20
2018-12-13T05:53:53.609Z,1.30
2018-12-13T05:56:22.842Z,1.30
2018-12-13T05:58:52.076Z,1.40
2018-12-13T06:01:21.355Z,1.30
2018-12-13T06:03:50.754Z,1.30
2018-12-13T06:06:20.016Z,1.40
2018-12-13T06:08:49.517Z,1.50
2018-12-13T06:11:18.759Z,1.40
2018-12-13T06:13:48.005Z,1.50
2018-12-13T06:16:17.224Z,1.40
2018-12-13T06:18:46.484Z,1.50
2018-12-13T06:21:15.916Z,1.50
2018-12-13T06:23:45.159Z,1.40
2018-12-13T06:26:14.418Z,1.50
2018-12-13T06:28:43.689Z,1.50
2018-12-13T06:31:12.977Z,1.50
2018-12-13T06:33:42.237Z,1.40
2018-12-13T06:36:11.491Z,1.60
2018-12-13T06:38:40.793Z,1.70
2018-12-13T06:41:10.021Z,1.70
2018-12-13T06:43:39.417Z,1.70
2018-12-13T06:46:08.702Z,1.60
2018-12-13T06:48:37.944Z,1.60
2018-12-13T06:51:07.178Z,1.40
2018-12-13T06:53:36.434Z,1.60
2018-12-13T06:56:05.691Z,1.50
2018-12-13T06:58:34.944Z,1.40
2018-12-13T07:01:04.197Z,1.40
2018-12-13T07:03:33.451Z,1.50
2018-12-13T07:06:02.792Z,1.60
2018-12-13T07:08:32.036Z,1.60
2018-12-13T07:11:01.315Z,1.70
2018-12-13T07:13:30.656Z,1.70
2018-12-13T07:15:59.936Z,1.70
2018-12-13T07:18:29.199Z,1.60
2018-12-13T07:20:58.505Z,1.60
2018-12-13T07:23:27.754Z,1.60
2018-12-13T07:25:57.032Z,1.70
2018-12-13T07:28:26.285Z,1.60
2018-12-13T07:30:55.564Z,1.70
2018-12-13T07:33:24.808Z,1.80
2018-12-13T07:35:54.051Z,1.60
2018-12-13T07:38:23.314Z,1.50
2018-12-13T07:40:52.577Z,1.50
2018-12-13T07:43:21.826Z,1.50
2018-12-13T07:45:51.104Z,1.50
2018-12-13T07:48:20.357Z,1.60
2018-12-13T07:50:49.622Z,1.40
2018-12-13T07:53:18.853Z,1.50
2018-12-13T07:55:48.111Z,1.60
2018-12-13T07:58:17.941Z,1.60
2018-12-13T08:00:47.209Z,1.40
2018-12-13T08:03:16.474Z,1.40
2018-12-13T08:05:46.518Z,1.30
2018-12-13T08:08:20.862Z,1.40
2018-12-13T08:10:47.013Z,1.50
2018-12-13T08:13:16.291Z,1.70
2018-12-13T08:15:45.535Z,1.60
2018-12-13T08:18:14.858Z,1.60
2018-12-13T08:20:44.110Z,1.80
2018-12-13T08:23:13.370Z,1.90
2018-12-13T08:25:42.591Z,1.70
2018-12-13T08:28:11.831Z,1.80
2018-12-13T08:30:41.091Z,1.70
2018-12-13T08:33:10.349Z,1.60
2018-12-13T08:35:39.611Z,1.70
2018-12-13T08:38:08.850Z,1.70
2018-12-13T08:40:38.103Z,1.80
2018-12-13T08:43:07.350Z,1.80
2018-12-13T08:45:36.597Z,1.80
2018-12-13T08:48:05.823Z,1.80
2018-12-13T08:50:35.066Z,1.80
2018-12-13T08:53:04.324Z,1.80
2018-12-13T08:55:33.660Z,1.80
2018-12-13T08:58:02.953Z,1.80
2018-12-13T09:00:32.257Z,1.90
2018-12-13T09:03:01.500Z,1.80
2018-12-13T09:05:30.849Z,1.90
2018-12-13T09:08:00.098Z,1.90
2018-12-13T09:10:29.365Z,2.00
2018-12-13T09:12:58.602Z,2.00
2018-12-13T09:15:27.873Z,2.10
2018-12-13T09:17:57.112Z,2.20
2018-12-13T09:20:26.450Z,2.10
2018-12-13T09:22:55.694Z,2.00
2018-12-13T09:25:24.970Z,1.90
2018-12-13T09:27:54.737Z,1.80
2018-12-13T09:30:23.970Z,2.00
2018-12-13T09:32:53.258Z,2.00
2018-12-13T09:35:23.226Z,2.10
2018-12-13T09:37:52.500Z,2.00
2018-12-13T09:40:21.753Z,2.00
2018-12-13T09:42:51.010Z,2.10
2018-12-13T09:45:20.266Z,2.20
2018-12-13T09:47:49.513Z,2.20
2018-12-13T09:50:18.781Z,2.10
2018-12-13T09:52:48.035Z,2.10
2018-12-13T09:55:17.301Z,2.20
2018-12-13T09:57:47.284Z,2.00
2018-12-13T10:00:16.581Z,2.10
2018-12-13T10:02:45.853Z,2.10
2018-12-13T10:05:15.139Z,2.10
2018-12-13T10:07:45.028Z,2.10
2018-12-13T10:10:14.869Z,1.90
2018-12-13T10:12:44.134Z,1.80
2018-12-13T10:15:13.469Z,2.00
2018-12-13T10:17:42.729Z,2.10
2018-12-13T10:20:12.121Z,2.00
2018-12-13T10:22:41.418Z,2.10
2018-12-13T10:25:10.637Z,2.10
2018-12-13T10:27:39.866Z,2.20
2018-12-13T10:30:09.228Z,2.00
2018-12-13T10:32:38.486Z,1.90
2018-12-13T10:35:11.334Z,1.90
2018-12-13T10:37:39.086Z,1.80
2018-12-13T10:40:08.400Z,1.90
2018-12-13T10:42:37.693Z,1.70
2018-12-13T10:45:07.253Z,1.70
2018-12-13T10:47:36.509Z,1.80
2018-12-13T10:50:06.999Z,1.80
2018-12-13T10:52:36.251Z,1.90
2018-12-13T10:55:05.945Z,1.80
2018-12-13T10:57:35.173Z,1.90
2018-12-13T11:00:07.459Z,1.90
2018-12-13T11:02:52.273Z,1.80
2018-12-13T11:05:21.521Z,1.80
2018-12-13T11:07:50.786Z,1.60
2018-12-13T11:10:25.430Z,1.70
2018-12-13T11:12:51.294Z,1.60
2018-12-13T11:15:20.509Z,1.60
2018-12-13T11:17:49.800Z,1.70
2018-12-13T11:20:19.037Z,1.70
2018-12-13T11:22:48.278Z,1.80
2018-12-13T11:25:17.532Z,1.80
2018-12-13T11:28:24.113Z,1.70
2018-12-13T11:30:53.355Z,1.70
2018-12-13T11:33:22.605Z,1.60
2018-12-13T11:35:51.924Z,1.60
2018-12-13T11:38:21.209Z,1.50
2018-12-13T11:40:50.445Z,1.50
2018-12-13T11:43:19.886Z,1.50
2018-12-13T11:45:49.113Z,1.60
2018-12-13T11:48:18.473Z,1.60
2018-12-13T11:50:47.726Z,1.50
2018-12-13T11:53:17.025Z,1.60
2018-12-13T11:55:46.395Z,1.70
2018-12-13T11:58:16.863Z,1.50
2018-12-13T12:00:46.110Z,1.60
2018-12-13T12:03:15.373Z,1.70
2018-12-13T12:05:44.601Z,1.70
2018-12-13T12:08:13.901Z,1.50
2018-12-13T12:10:43.281Z,1.70
2018-12-13T12:13:12.560Z,1.70
2018-12-13T12:15:41.811Z,1.80
2018-12-13T12:18:11.049Z,1.80
2018-12-13T12:20:40.324Z,1.50
2018-12-13T12:23:09.561Z,1.60
2018-12-13T12:25:38.875Z,1.50
2018-12-13T12:28:08.142Z,1.50
2018-12-13T12:30:37.405Z,1.50
2018-12-13T12:33:06.677Z,1.50
2018-12-13T12:35:35.944Z,1.40
2018-12-13T12:38:05.241Z,1.30
2018-12-13T12:40:34.505Z,1.40
2018-12-13T12:43:03.769Z,1.40
2018-12-13T12:45:33.053Z,1.40
2018-12-13T12:48:02.310Z,1.50
2018-12-13T12:50:31.569Z,1.50
2018-12-13T12:53:00.846Z,1.50
2018-12-13T12:55:30.094Z,1.70
2018-12-13T12:57:59.341Z,1.60
2018-12-13T13:00:28.628Z,1.50
2018-12-13T13:02:58.228Z,1.50
2018-12-13T13:05:27.480Z,1.50
2018-12-13T13:07:57.746Z,1.50
2018-12-13T13:10:27.203Z,1.40
2018-12-13T13:12:56.439Z,1.40
2018-12-13T13:15:25.775Z,1.40
2018-12-13T13:17:55.009Z,1.40
2018-12-13T13:20:24.262Z,1.60
2018-12-13T13:22:53.533Z,1.60
2018-12-13T13:25:22.820Z,1.50
2018-12-13T13:27:52.150Z,1.60
2018-12-13T13:30:21.465Z,1.40
2018-12-13T13:32:50.706Z,1.20
2018-12-13T13:35:20.015Z,1.20
2018-12-13T13:37:49.225Z,1.20
2018-12-13T13:40:18.454Z,1.30
2018-12-13T13:42:47.813Z,1.40
2018-12-13T13:45:18.868Z,1.50
2018-12-13T13:47:48.236Z,1.40
2018-12-13T13:50:17.527Z,1.40
2018-12-13T13:52:46.793Z,1.50
2018-12-13T13:55:16.177Z,1.60
2018-12-13T13:57:45.548Z,1.60
2018-12-13T14:00:15.009Z,1.40
2018-12-13T14:02:44.313Z,1.40
2018-12-13T14:05:13.713Z,1.50
2018-12-13T14:07:43.002Z,1.40
2018-12-13T14:10:12.409Z,1.40
2018-12-13T14:12:41.680Z,1.50
2018-12-13T14:15:10.937Z,1.30
2018-12-13T14:17:40.189Z,1.30
2018-12-13T14:20:09.588Z,1.40
2018-12-13T14:22:38.885Z,1.30
2018-12-13T14:25:08.288Z,1.30
2018-12-13T14:27:37.566Z,1.40
2018-12-13T14:30:07.335Z,1.50
2018-12-13T14:32:36.645Z,1.40
2018-12-13T14:35:06.440Z,1.40
2018-12-13T14:37:35.799Z,1.40
2018-12-13T14:40:05.453Z,1.40
2018-12-13T14:42:34.745Z,1.30
2018-12-13T14:45:04.573Z,1.30
2018-12-13T14:47:33.854Z,1.40
2018-12-13T14:50:03.137Z,1.40
2018-12-13T14:52:32.460Z,1.40
2018-12-13T14:55:01.709Z,1.40
2018-12-13T14:57:31.014Z,1.30
2018-12-13T15:00:00.360Z,1.30
2018-12-13T15:02:29.693Z,1.20
2018-12-13T15:04:59.002Z,1.20
2018-12-13T15:07:28.276Z,1.10
2018-12-13T15:09:57.568Z,1.20
2018-12-13T15:12:26.849Z,1.10
2018-12-13T15:14:56.153Z,1.00
2018-12-13T15:17:25.433Z,1.10
2018-12-13T15:19:54.697Z,1.10
2018-12-13T15:22:23.966Z,1.20
2018-12-13T15:24:53.229Z,1.20
2018-12-13T15:27:22.476Z,1.20
2018-12-13T15:29:51.761Z,1.20
2018-12-13T15:32:21.118Z,1.20
2018-12-13T15:34:50.385Z,1.30
2018-12-13T15:37:19.753Z,1.20
2018-12-13T15:39:49.012Z,1.10
2018-12-13T15:42:18.295Z,1.10
2018-12-13T15:44:47.642Z,1.20
2018-12-13T15:47:16.985Z,1.10
2018-12-13T15:49:46.696Z,0.90
2018-12-13T15:52:15.982Z,1.00
2018-12-13T15:54:45.260Z,1.10
2018-12-13T15:57:14.573Z,1.10
2018-12-13T15:59:43.834Z,1.20
2018-12-13T16:02:13.126Z,1.20
2018-12-13T16:04:42.448Z,1.00
2018-12-13T16:07:11.741Z,1.00
2018-12-13T16:09:41.041Z,1.10
2018-12-13T16:12:10.316Z,1.10
2018-12-13T16:14:39.616Z,1.10
2018-12-13T16:17:08.910Z,1.20
2018-12-13T16:19:38.203Z,1.10
2018-12-13T16:22:07.460Z,1.10
2018-12-13T16:24:36.709Z,1.00
2018-12-13T16:27:06.025Z,1.00
2018-12-13T16:29:35.435Z,1.20
2018-12-13T16:32:04.894Z,1.20
2018-12-13T16:34:34.123Z,1.10
2018-12-13T16:37:03.428Z,1.30
2018-12-13T16:39:32.679Z,1.20
2018-12-13T16:42:01.954Z,1.30
2018-12-13T16:44:31.310Z,1.30
2018-12-13T16:47:01.146Z,1.30
2018-12-13T16:49:30.425Z,1.20
2018-12-13T16:51:59.768Z,1.20
2018-12-13T16:54:29.054Z,1.20
2018-12-13T16:56:58.321Z,1.30
2018-12-13T16:59:27.626Z,1.40
2018-12-13T17:01:56.897Z,1.30
2018-12-13T17:04:26.274Z,1.30
2018-12-13T17:06:55.704Z,1.40
2018-12-13T17:09:25.096Z,1.40
2018-12-13T17:11:54.344Z,1.50
2018-12-13T17:14:23.621Z,1.30
2018-12-13T17:16:53.037Z,1.30
2018-12-13T17:19:22.324Z,1.40
2018-12-13T17:21:51.592Z,1.60
2018-12-13T17:24:20.988Z,1.50
2018-12-13T17:26:50.221Z,1.40
2018-12-13T17:29:19.585Z,1.40
2018-12-13T17:31:48.848Z,1.40
2018-12-13T17:34:18.143Z,1.40
2018-12-13T17:36:47.434Z,1.40
2018-12-13T17:39:16.722Z,1.30
2018-12-13T17:41:45.943Z,1.40
2018-12-13T17:44:15.413Z,1.40
2018-12-13T17:46:44.680Z,1.50
2018-12-13T17:49:13.997Z,1.40
2018-12-13T17:51:43.289Z,1.30
2018-12-13T17:54:12.666Z,1.20
2018-12-13T17:56:41.929Z,1.20
2018-12-13T17:59:11.179Z,1.40
2018-12-13T18:01:40.446Z,1.40
2018-12-13T18:04:09.852Z,1.30
2018-12-13T18:06:39.159Z,1.40
2018-12-13T18:09:09.148Z,1.40
2018-12-13T18:11:38.816Z,1.40
2018-12-13T18:14:08.084Z,1.40
2018-12-13T18:16:43.243Z,1.60
2018-12-13T18:19:08.807Z,1.60
2018-12-13T18:21:38.393Z,1.40
2018-12-13T18:24:07.797Z,1.30
2018-12-13T18:26:37.133Z,1.30
2018-12-13T18:29:06.458Z,1.40
2018-12-13T18:31:35.787Z,1.40
2018-12-13T18:34:05.161Z,1.50
2018-12-13T18:36:34.572Z,1.50
2018-12-13T18:39:06.215Z,1.60
2018-12-13T18:41:35.725Z,1.50
2018-12-13T18:44:05.019Z,1.40
2018-12-13T18:46:34.678Z,1.30
2018-12-13T18:49:03.983Z,1.50
2018-12-13T18:51:33.349Z,1.50
2018-12-13T18:54:02.652Z,1.50
2018-12-13T18:56:31.970Z,1.50
2018-12-13T18:59:01.259Z,1.50
2018-12-13T19:01:30.533Z,1.40
2018-12-13T19:03:59.932Z,1.30
2018-12-13T19:06:29.195Z,1.30
2018-12-13T19:08:58.666Z,1.50
2018-12-13T19:11:28.179Z,1.40
2018-12-13T19:13:57.561Z,1.40
2018-12-13T19:16:26.908Z,1.50
2018-12-13T19:18:56.188Z,1.50
2018-12-13T19:21:25.470Z,1.50
2018-12-13T19:23:54.798Z,1.60
2018-12-13T19:26:24.061Z,1.70
2018-12-13T19:28:53.374Z,1.70
2018-12-13T19:31:22.710Z,1.70
2018-12-13T19:33:52.045Z,1.70
2018-12-13T19:36:21.399Z,1.60
2018-12-13T19:38:50.675Z,1.50
2018-12-13T19:41:20.000Z,1.50
2018-12-13T19:43:49.346Z,1.40
2018-12-13T19:46:18.639Z,1.60
2018-12-13T19:48:47.932Z,1.70
2018-12-13T19:51:17.260Z,1.70
2018-12-13T19:53:46.567Z,1.70
2018-12-13T19:56:15.834Z,1.70
2018-12-13T19:58:45.089Z,1.60
2018-12-13T20:01:14.336Z,1.60
2018-12-13T20:03:43.621Z,1.70
2018-12-13T20:06:12.909Z,1.40
2018-12-13T20:08:42.212Z,1.50
2018-12-13T20:11:11.459Z,1.50
2018-12-13T20:13:40.801Z,1.60
2018-12-13T20:16:10.099Z,1.60
2018-12-13T20:18:39.414Z,1.60
2018-12-13T20:21:08.706Z,1.60
2018-12-13T20:23:38.085Z,1.60
2018-12-13T20:26:07.408Z,1.60
2018-12-13T20:28:36.669Z,1.60
2018-12-13T20:31:05.982Z,1.60
2018-12-13T20:33:36.646Z,1.50
2018-12-13T20:36:06.008Z,1.50
2018-12-13T20:38:35.281Z,1.70
2018-12-13T20:41:04.566Z,1.70
2018-12-13T20:43:33.936Z,1.70
2018-12-13T20:46:03.314Z,1.70
2018-12-13T20:48:32.608Z,1.80
2018-12-13T20:51:01.922Z,1.80
2018-12-13T20:53:31.221Z,1.60
2018-12-13T20:56:00.612Z,1.80
2018-12-13T20:58:29.858Z,1.80
2018-12-13T21:00:59.182Z,1.80
2018-12-13T21:03:28.423Z,1.80
2018-12-13T21:05:57.707Z,1.80
2018-12-13T21:08:26.966Z,1.70
2018-12-13T21:10:56.262Z,1.60
2018-12-13T21:13:25.536Z,1.60
2018-12-13T21:15:54.897Z,1.70
2018-12-13T21:18:24.167Z,1.80
2018-12-13T21:20:53.460Z,1.70
2018-12-13T21:23:22.733Z,1.80
2018-12-13T21:25:51.984Z,1.80
2018-12-13T21:28:21.338Z,1.60
2018-12-13T21:30:50.616Z,1.60
2018-12-13T21:33:19.888Z,1.60
2018-12-13T21:35:49.197Z,1.70
2018-12-13T21:38:18.540Z,1.80
2018-12-13T21:40:47.804Z,1.70
2018-12-13T21:43:17.075Z,1.70
2018-12-13T21:45:46.309Z,1.70
2018-12-13T21:48:15.608Z,1.70
2018-12-13T21:50:45.802Z,1.60
2018-12-13T21:53:15.353Z,1.60
2018-12-13T21:55:44.612Z,1.70
2018-12-13T21:58:13.884Z,1.70
2018-12-13T22:00:43.181Z,1.80
2018-12-13T22:03:12.469Z,1.90
2018-12-13T22:05:41.757Z,1.80
2018-12-13T22:08:11.013Z,1.80
2018-12-13T22:10:40.276Z,1.70
2018-12-13T22:13:09.613Z,1.80
2018-12-13T22:15:38.892Z,1.80
2018-12-13T22:18:08.192Z,1.80
2018-12-13T22:20:37.437Z,1.80
2018-12-13T22:23:06.711Z,1.70
2018-12-13T22:25:36.105Z,1.80
2018-12-13T22:28:05.413Z,1.70
2018-12-13T22:30:34.759Z,1.60
2018-12-13T22:33:04.059Z,1.80
2018-12-13T22:35:33.429Z,1.60
2018-12-13T22:38:02.753Z,1.50
2018-12-13T22:40:31.997Z,1.40
2018-12-13T22:43:01.269Z,1.50
2018-12-13T22:45:30.527Z,1.50
2018-12-13T22:47:59.798Z,1.60
2018-12-13T22:50:29.072Z,1.60
2018-12-13T22:52:58.328Z,1.60
2018-12-13T22:55:27.614Z,1.40
2018-12-13T22:57:56.875Z,1.50
2018-12-13T23:00:26.129Z,1.50
2018-12-13T23:02:55.368Z,1.60
2018-12-13T23:05:24.701Z,1.50
2018-12-13T23:07:54.167Z,1.60
2018-12-13T23:10:23.475Z,1.50
2018-12-13T23:12:52.802Z,1.60
2018-12-13T23:15:22.077Z,1.50
2018-12-13T23:17:51.337Z,1.60
2018-12-13T23:20:20.674Z,1.50
2018-12-13T23:22:49.943Z,1.60
2018-12-13T23:25:19.184Z,1.60
2018-12-13T23:27:48.461Z,1.70
2018-12-13T23:30:17.705Z,1.50
2018-12-13T23:32:47.307Z,1.50
2018-12-13T23:35:16.614Z,1.50
2018-12-13T23:37:45.861Z,1.50
2018-12-13T23:40:15.142Z,1.50
2018-12-13T23:42:44.411Z,1.60
2018-12-13T23:45:13.725Z,1.60
2018-12-13T23:47:43.095Z,1.70
2018-12-13T23:50:12.471Z,1.60
2018-12-13T23:52:41.713Z,1.50
2018-12-13T23:55:10.941Z,1.50
2018-12-13T23:57:40.211Z,1.50
